sensor_id;sensor_type;location;lat;lon;timestamp;pressure;altitude;pressure_sealevel;temperature;humidity
37202;BME280;37799;52.390;6.136;2023-03-03T00:01:27;102544.69;;;1.08;100.00
37202;BME280;37799;52.390;6.136;2023-03-03T00:03:53;102539.78;;;1.13;100.00
37202;BME280;37799;52.390;6.136;2023-03-03T00:06:19;102542.31;;;1.13;100.00
37202;BME280;37799;52.390;6.136;2023-03-03T00:08:45;102541.72;;;0.98;100.00
37202;BME280;37799;52.390;6.136;2023-03-03T00:11:10;102549.13;;;0.92;100.00
37202;BME280;37799;52.390;6.136;2023-03-03T00:13:53;102548.19;;;1.10;100.00
37202;BME280;37799;52.390;6.136;2023-03-03T00:16:30;102546.16;;;1.03;100.00
37202;BME280;37799;52.390;6.136;2023-03-03T00:18:56;102543.88;;;1.09;100.00
37202;BME280;37799;52.390;6.136;2023-03-03T00:21:34;102546.56;;;1.12;100.00
37202;BME280;37799;52.390;6.136;2023-03-03T00:26:40;102552.53;;;1.13;100.00
37202;BME280;37799;52.390;6.136;2023-03-03T00:31:46;102551.53;;;1.09;100.00
37202;BME280;37799;52.390;6.136;2023-03-03T00:36:43;102557.13;;;1.01;100.00
37202;BME280;37799;52.390;6.136;2023-03-03T00:39:37;102548.00;;;1.06;100.00
37202;BME280;37799;52.390;6.136;2023-03-03T00:42:16;102552.28;;;1.07;100.00
37202;BME280;37799;52.390;6.136;2023-03-03T00:44:53;102553.09;;;1.06;100.00
37202;BME280;37799;52.390;6.136;2023-03-03T00:47:38;102552.63;;;1.16;100.00
37202;BME280;37799;52.390;6.136;2023-03-03T00:52:37;102560.13;;;1.11;100.00
37202;BME280;37799;52.390;6.136;2023-03-03T00:55:04;102565.28;;;1.13;100.00
37202;BME280;37799;52.390;6.136;2023-03-03T00:57:29;102558.06;;;1.24;100.00
37202;BME280;37799;52.390;6.136;2023-03-03T00:59:55;102559.81;;;1.25;100.00
37202;BME280;37799;52.390;6.136;2023-03-03T01:02:21;102551.09;;;1.20;100.00
37202;BME280;37799;52.390;6.136;2023-03-03T01:04:49;102550.28;;;1.21;100.00
37202;BME280;37799;52.390;6.136;2023-03-03T01:07:15;102562.41;;;1.26;100.00
37202;BME280;37799;52.390;6.136;2023-03-03T01:09:40;102554.69;;;1.25;100.00
37202;BME280;37799;52.390;6.136;2023-03-03T01:12:05;102552.72;;;1.17;100.00
37202;BME280;37799;52.390;6.136;2023-03-03T01:14:31;102554.16;;;1.11;100.00
37202;BME280;37799;52.390;6.136;2023-03-03T01:16:57;102559.38;;;1.14;100.00
37202;BME280;37799;52.390;6.136;2023-03-03T01:19:22;102548.88;;;1.29;100.00
37202;BME280;37799;52.390;6.136;2023-03-03T01:21:47;102553.78;;;1.23;100.00
37202;BME280;37799;52.390;6.136;2023-03-03T01:24:13;102548.66;;;1.23;100.00
37202;BME280;37799;52.390;6.136;2023-03-03T01:26:38;102545.34;;;1.25;100.00
37202;BME280;37799;52.390;6.136;2023-03-03T01:29:03;102559.97;;;1.29;100.00
37202;BME280;37799;52.390;6.136;2023-03-03T01:31:29;102552.41;;;1.31;100.00
37202;BME280;37799;52.390;6.136;2023-03-03T01:33:54;102547.22;;;1.29;100.00
37202;BME280;37799;52.390;6.136;2023-03-03T01:36:24;102545.31;;;1.24;100.00
37202;BME280;37799;52.390;6.136;2023-03-03T01:38:49;102540.91;;;1.20;100.00
37202;BME280;37799;52.390;6.136;2023-03-03T01:41:15;102541.56;;;1.36;100.00
37202;BME280;37799;52.390;6.136;2023-03-03T01:43:45;102541.94;;;1.25;100.00
37202;BME280;37799;52.390;6.136;2023-03-03T01:49:06;102543.13;;;1.33;100.00
37202;BME280;37799;52.390;6.136;2023-03-03T01:51:40;102546.22;;;1.26;100.00
37202;BME280;37799;52.390;6.136;2023-03-03T01:54:16;102545.66;;;1.33;100.00
37202;BME280;37799;52.390;6.136;2023-03-03T01:56:42;102547.31;;;1.10;100.00
37202;BME280;37799;52.390;6.136;2023-03-03T01:59:15;102549.41;;;1.20;100.00
37202;BME280;37799;52.390;6.136;2023-03-03T02:01:44;102545.75;;;1.13;100.00
37202;BME280;37799;52.390;6.136;2023-03-03T02:04:11;102548.94;;;1.08;100.00
37202;BME280;37799;52.390;6.136;2023-03-03T02:06:40;102547.38;;;1.11;100.00
37202;BME280;37799;52.390;6.136;2023-03-03T02:11:35;102540.34;;;1.06;100.00
37202;BME280;37799;52.390;6.136;2023-03-03T02:14:01;102539.22;;;0.99;100.00
37202;BME280;37799;52.390;6.136;2023-03-03T02:16:27;102549.38;;;0.98;100.00
37202;BME280;37799;52.390;6.136;2023-03-03T02:18:52;102544.31;;;0.99;100.00
37202;BME280;37799;52.390;6.136;2023-03-03T02:21:20;102545.78;;;1.15;100.00
37202;BME280;37799;52.390;6.136;2023-03-03T02:26:23;102541.06;;;1.03;100.00
37202;BME280;37799;52.390;6.136;2023-03-03T02:28:50;102532.50;;;1.01;100.00
37202;BME280;37799;52.390;6.136;2023-03-03T02:31:18;102539.59;;;1.08;100.00
37202;BME280;37799;52.390;6.136;2023-03-03T02:33:47;102540.72;;;0.94;100.00
37202;BME280;37799;52.390;6.136;2023-03-03T02:36:18;102536.28;;;1.11;100.00
37202;BME280;37799;52.390;6.136;2023-03-03T02:44:17;102541.97;;;0.83;100.00
37202;BME280;37799;52.390;6.136;2023-03-03T02:46:45;102533.16;;;0.76;100.00
37202;BME280;37799;52.390;6.136;2023-03-03T02:49:13;102530.56;;;0.75;100.00
37202;BME280;37799;52.390;6.136;2023-03-03T02:51:39;102530.94;;;0.84;100.00
37202;BME280;37799;52.390;6.136;2023-03-03T02:54:05;102535.47;;;0.91;100.00
37202;BME280;37799;52.390;6.136;2023-03-03T02:56:30;102535.34;;;0.88;100.00
37202;BME280;37799;52.390;6.136;2023-03-03T02:58:56;102529.78;;;0.97;100.00
37202;BME280;37799;52.390;6.136;2023-03-03T03:01:22;102538.84;;;1.11;100.00
37202;BME280;37799;52.390;6.136;2023-03-03T03:03:47;102531.13;;;1.09;100.00
37202;BME280;37799;52.390;6.136;2023-03-03T03:06:13;102528.09;;;0.97;100.00
37202;BME280;37799;52.390;6.136;2023-03-03T03:08:38;102535.78;;;0.99;100.00
37202;BME280;37799;52.390;6.136;2023-03-03T03:11:04;102530.19;;;1.07;100.00
37202;BME280;37799;52.390;6.136;2023-03-03T03:13:30;102534.44;;;0.86;100.00
37202;BME280;37799;52.390;6.136;2023-03-03T03:15:57;102535.41;;;0.89;100.00
37202;BME280;37799;52.390;6.136;2023-03-03T03:18:22;102539.84;;;0.94;100.00
37202;BME280;37799;52.390;6.136;2023-03-03T03:20:47;102544.97;;;0.94;100.00
37202;BME280;37799;52.390;6.136;2023-03-03T03:23:13;102542.34;;;0.92;100.00
37202;BME280;37799;52.390;6.136;2023-03-03T03:25:39;102544.09;;;0.93;100.00
37202;BME280;37799;52.390;6.136;2023-03-03T03:28:10;102546.63;;;0.93;100.00
37202;BME280;37799;52.390;6.136;2023-03-03T03:30:37;102549.19;;;0.93;100.00
37202;BME280;37799;52.390;6.136;2023-03-03T03:33:02;102550.78;;;0.91;100.00
37202;BME280;37799;52.390;6.136;2023-03-03T03:35:28;102551.16;;;1.00;100.00
37202;BME280;37799;52.390;6.136;2023-03-03T03:37:53;102554.91;;;1.08;100.00
37202;BME280;37799;52.390;6.136;2023-03-03T03:40:18;102549.53;;;1.02;100.00
37202;BME280;37799;52.390;6.136;2023-03-03T03:42:44;102552.66;;;0.95;100.00
37202;BME280;37799;52.390;6.136;2023-03-03T03:45:10;102556.16;;;0.97;100.00
37202;BME280;37799;52.390;6.136;2023-03-03T03:47:39;102551.91;;;0.98;100.00
37202;BME280;37799;52.390;6.136;2023-03-03T03:50:05;102557.00;;;0.98;100.00
37202;BME280;37799;52.390;6.136;2023-03-03T03:52:30;102546.00;;;1.20;100.00
37202;BME280;37799;52.390;6.136;2023-03-03T03:54:56;102550.50;;;1.04;100.00
37202;BME280;37799;52.390;6.136;2023-03-03T03:57:21;102555.94;;;1.13;100.00
37202;BME280;37799;52.390;6.136;2023-03-03T03:59:48;102548.13;;;1.09;100.00
37202;BME280;37799;52.390;6.136;2023-03-03T04:02:14;102546.16;;;1.03;100.00
37202;BME280;37799;52.390;6.136;2023-03-03T04:04:39;102540.56;;;1.12;100.00
37202;BME280;37799;52.390;6.136;2023-03-03T04:07:04;102546.88;;;1.20;100.00
37202;BME280;37799;52.390;6.136;2023-03-03T04:09:29;102556.69;;;1.11;100.00
37202;BME280;37799;52.390;6.136;2023-03-03T04:11:55;102550.19;;;1.17;100.00
37202;BME280;37799;52.390;6.136;2023-03-03T04:14:20;102554.03;;;1.08;100.00
37202;BME280;37799;52.390;6.136;2023-03-03T04:16:45;102559.75;;;1.23;100.00
37202;BME280;37799;52.390;6.136;2023-03-03T04:19:11;102561.38;;;1.00;100.00
37202;BME280;37799;52.390;6.136;2023-03-03T04:21:36;102563.69;;;0.94;100.00
37202;BME280;37799;52.390;6.136;2023-03-03T04:24:01;102555.00;;;0.91;100.00
37202;BME280;37799;52.390;6.136;2023-03-03T04:26:27;102554.41;;;0.96;100.00
37202;BME280;37799;52.390;6.136;2023-03-03T04:28:52;102556.16;;;0.97;100.00
37202;BME280;37799;52.390;6.136;2023-03-03T04:31:18;102558.00;;;1.01;100.00
37202;BME280;37799;52.390;6.136;2023-03-03T04:33:44;102555.50;;;1.03;100.00
37202;BME280;37799;52.390;6.136;2023-03-03T04:36:10;102556.38;;;1.03;100.00
37202;BME280;37799;52.390;6.136;2023-03-03T04:38:35;102561.38;;;1.00;100.00
37202;BME280;37799;52.390;6.136;2023-03-03T04:41:00;102551.53;;;1.09;100.00
37202;BME280;37799;52.390;6.136;2023-03-03T04:43:25;102549.69;;;1.05;100.00
37202;BME280;37799;52.390;6.136;2023-03-03T04:45:51;102550.72;;;1.10;100.00
37202;BME280;37799;52.390;6.136;2023-03-03T04:48:16;102553.81;;;1.03;100.00
37202;BME280;37799;52.390;6.136;2023-03-03T04:50:42;102558.16;;;1.04;100.00
37202;BME280;37799;52.390;6.136;2023-03-03T04:53:07;102550.34;;;1.01;100.00
37202;BME280;37799;52.390;6.136;2023-03-03T04:55:35;102546.88;;;0.99;100.00
37202;BME280;37799;52.390;6.136;2023-03-03T04:58:01;102551.53;;;1.09;100.00
37202;BME280;37799;52.390;6.136;2023-03-03T05:00:27;102551.97;;;0.99;100.00
37202;BME280;37799;52.390;6.136;2023-03-03T05:02:52;102549.19;;;0.93;100.00
37202;BME280;37799;52.390;6.136;2023-03-03T05:05:17;102556.94;;;0.96;100.00
37202;BME280;37799;52.390;6.136;2023-03-03T05:07:43;102551.38;;;1.05;100.00
37202;BME280;37799;52.390;6.136;2023-03-03T05:10:09;102548.66;;;1.02;100.00
37202;BME280;37799;52.390;6.136;2023-03-03T05:12:34;102551.22;;;1.02;100.00
37202;BME280;37799;52.390;6.136;2023-03-03T05:14:59;102548.94;;;1.08;100.00
37202;BME280;37799;52.390;6.136;2023-03-03T05:17:25;102542.63;;;1.21;100.00
37202;BME280;37799;52.390;6.136;2023-03-03T05:19:50;102545.69;;;1.12;100.00
37202;BME280;37799;52.390;6.136;2023-03-03T05:22:16;102554.09;;;1.09;100.00
37202;BME280;37799;52.390;6.136;2023-03-03T05:24:41;102562.34;;;1.04;100.00
37202;BME280;37799;52.390;6.136;2023-03-03T05:27:08;102559.88;;;1.05;100.00
37202;BME280;37799;52.390;6.136;2023-03-03T05:29:33;102562.13;;;0.98;100.00
37202;BME280;37799;52.390;6.136;2023-03-03T05:31:59;102557.19;;;1.02;100.00
37202;BME280;37799;52.390;6.136;2023-03-03T05:34:24;102559.25;;;1.11;100.00
37202;BME280;37799;52.390;6.136;2023-03-03T05:36:49;102559.44;;;1.15;100.00
37202;BME280;37799;52.390;6.136;2023-03-03T05:39:15;102563.59;;;1.13;100.00
37202;BME280;37799;52.390;6.136;2023-03-03T05:41:40;102569.94;;;1.23;100.00
37202;BME280;37799;52.390;6.136;2023-03-03T05:44:05;102569.19;;;1.26;100.00
37202;BME280;37799;52.390;6.136;2023-03-03T05:46:31;102562.47;;;1.28;100.00
37202;BME280;37799;52.390;6.136;2023-03-03T05:48:56;102561.47;;;1.24;100.00
37202;BME280;37799;52.390;6.136;2023-03-03T05:51:21;102565.72;;;1.24;100.00
37202;BME280;37799;52.390;6.136;2023-03-03T05:53:47;102564.16;;;1.27;100.00
37202;BME280;37799;52.390;6.136;2023-03-03T05:56:12;102569.19;;;1.26;100.00
37202;BME280;37799;52.390;6.136;2023-03-03T05:58:37;102565.59;;;1.21;100.00
37202;BME280;37799;52.390;6.136;2023-03-03T06:01:03;102571.25;;;1.13;100.00
37202;BME280;37799;52.390;6.136;2023-03-03T06:03:28;102564.84;;;1.23;100.00
37202;BME280;37799;52.390;6.136;2023-03-03T06:05:53;102569.63;;;1.15;100.00
37202;BME280;37799;52.390;6.136;2023-03-03T06:08:19;102569.91;;;1.22;100.00
37202;BME280;37799;52.390;6.136;2023-03-03T06:10:44;102558.88;;;1.23;100.00
37202;BME280;37799;52.390;6.136;2023-03-03T06:13:09;102572.66;;;1.28;100.00
37202;BME280;37799;52.390;6.136;2023-03-03T06:15:35;102569.31;;;1.29;100.00
37202;BME280;37799;52.390;6.136;2023-03-03T06:18:00;102563.38;;;1.30;100.00
37202;BME280;37799;52.390;6.136;2023-03-03T06:20:25;102563.72;;;1.37;100.00
37202;BME280;37799;52.390;6.136;2023-03-03T06:22:51;102573.03;;;1.37;100.00
37202;BME280;37799;52.390;6.136;2023-03-03T06:25:16;102567.19;;;1.39;100.00
37202;BME280;37799;52.390;6.136;2023-03-03T06:27:42;102568.69;;;1.34;100.00
37202;BME280;37799;52.390;6.136;2023-03-03T06:30:08;102564.47;;;1.35;100.00
37202;BME280;37799;52.390;6.136;2023-03-03T06:32:33;102566.31;;;1.39;100.00
37202;BME280;37799;52.390;6.136;2023-03-03T06:34:58;102564.03;;;1.45;100.00
37202;BME280;37799;52.390;6.136;2023-03-03T06:37:24;102563.88;;;1.42;100.00
37202;BME280;37799;52.390;6.136;2023-03-03T06:39:49;102568.25;;;1.44;100.00
37202;BME280;37799;52.390;6.136;2023-03-03T06:42:16;102575.28;;;1.50;100.00
37202;BME280;37799;52.390;6.136;2023-03-03T06:44:43;102569.25;;;1.48;100.00
37202;BME280;37799;52.390;6.136;2023-03-03T06:47:08;102571.69;;;1.45;100.00
37202;BME280;37799;52.390;6.136;2023-03-03T06:49:33;102569.06;;;1.43;100.00
37202;BME280;37799;52.390;6.136;2023-03-03T06:52:00;102572.66;;;1.48;100.00
37202;BME280;37799;52.390;6.136;2023-03-03T06:54:29;102574.97;;;1.65;100.00
37202;BME280;37799;52.390;6.136;2023-03-03T06:56:58;102580.75;;;1.59;100.00
37202;BME280;37799;52.390;6.136;2023-03-03T06:59:25;102587.38;;;1.56;100.00
37202;BME280;37799;52.390;6.136;2023-03-03T07:01:51;102587.69;;;1.63;100.00
37202;BME280;37799;52.390;6.136;2023-03-03T07:04:32;102589.69;;;1.70;100.00
37202;BME280;37799;52.390;6.136;2023-03-03T07:07:10;102592.91;;;1.66;100.00
37202;BME280;37799;52.390;6.136;2023-03-03T07:09:39;102593.63;;;1.62;100.00
37202;BME280;37799;52.390;6.136;2023-03-03T07:12:25;102599.75;;;1.67;100.00
37202;BME280;37799;52.390;6.136;2023-03-03T07:14:55;102607.56;;;1.70;100.00
37202;BME280;37799;52.390;6.136;2023-03-03T07:17:24;102603.50;;;1.75;100.00
37202;BME280;37799;52.390;6.136;2023-03-03T07:19:50;102609.34;;;1.73;100.00
37202;BME280;37799;52.390;6.136;2023-03-03T07:22:17;102618.81;;;1.75;100.00
37202;BME280;37799;52.390;6.136;2023-03-03T07:24:48;102614.78;;;1.82;100.00
37202;BME280;37799;52.390;6.136;2023-03-03T07:29:48;102624.34;;;1.86;100.00
37202;BME280;37799;52.390;6.136;2023-03-03T07:32:33;102627.03;;;1.68;100.00
37202;BME280;37799;52.390;6.136;2023-03-03T07:35:17;102626.94;;;1.65;100.00
37202;BME280;37799;52.390;6.136;2023-03-03T07:37:48;102637.78;;;1.82;100.00
37202;BME280;37799;52.390;6.136;2023-03-03T07:40:29;102635.25;;;2.04;100.00
37202;BME280;37799;52.390;6.136;2023-03-03T07:42:57;102641.69;;;1.95;100.00
37202;BME280;37799;52.390;6.136;2023-03-03T07:47:56;102650.63;;;2.06;100.00
37202;BME280;37799;52.390;6.136;2023-03-03T07:50:25;102654.25;;;2.11;100.00
37202;BME280;37799;52.390;6.136;2023-03-03T07:52:56;102645.31;;;2.22;100.00
37202;BME280;37799;52.390;6.136;2023-03-03T07:55:35;102654.34;;;2.36;100.00
37202;BME280;37799;52.390;6.136;2023-03-03T07:58:22;102659.50;;;2.38;100.00
37202;BME280;37799;52.390;6.136;2023-03-03T08:03:45;102663.44;;;2.52;100.00
37202;BME280;37799;52.390;6.136;2023-03-03T08:11:48;102669.34;;;2.74;100.00
37202;BME280;37799;52.390;6.136;2023-03-03T08:14:29;102668.19;;;2.89;100.00
37202;BME280;37799;52.390;6.136;2023-03-03T08:16:56;102677.03;;;2.99;100.00
37202;BME280;37799;52.390;6.136;2023-03-03T08:19:22;102667.97;;;3.09;100.00
37202;BME280;37799;52.390;6.136;2023-03-03T08:21:48;102666.59;;;3.18;100.00
37202;BME280;37799;52.390;6.136;2023-03-03T08:24:13;102665.22;;;3.53;100.00
37202;BME280;37799;52.390;6.136;2023-03-03T08:26:38;102666.97;;;4.10;100.00
37202;BME280;37799;52.390;6.136;2023-03-03T08:29:04;102681.13;;;4.56;100.00
37202;BME280;37799;52.390;6.136;2023-03-03T08:31:29;102684.97;;;4.71;100.00
37202;BME280;37799;52.390;6.136;2023-03-03T08:33:54;102687.66;;;4.76;100.00
37202;BME280;37799;52.390;6.136;2023-03-03T08:36:20;102687.56;;;4.71;100.00
37202;BME280;37799;52.390;6.136;2023-03-03T08:38:45;102683.47;;;4.80;100.00
37202;BME280;37799;52.390;6.136;2023-03-03T08:41:11;102686.16;;;4.83;100.00
37202;BME280;37799;52.390;6.136;2023-03-03T08:43:36;102683.47;;;4.80;100.00
37202;BME280;37799;52.390;6.136;2023-03-03T08:46:03;102685.41;;;4.87;100.00
37202;BME280;37799;52.390;6.136;2023-03-03T08:48:30;102685.47;;;4.90;100.00
37202;BME280;37799;52.390;6.136;2023-03-03T08:50:55;102681.94;;;4.85;100.00
37202;BME280;37799;52.390;6.136;2023-03-03T08:53:22;102674.75;;;5.04;100.00
37202;BME280;37799;52.390;6.136;2023-03-03T08:55:48;102681.97;;;5.19;100.00
37202;BME280;37799;52.390;6.136;2023-03-03T08:58:14;102676.53;;;5.42;100.00
37202;BME280;37799;52.390;6.136;2023-03-03T09:00:41;102683.97;;;5.66;100.00
37202;BME280;37799;52.390;6.136;2023-03-03T09:03:06;102681.13;;;5.89;100.00
37202;BME280;37799;52.390;6.136;2023-03-03T09:05:33;102684.06;;;6.05;100.00
37202;BME280;37799;52.390;6.136;2023-03-03T09:07:59;102691.72;;;6.02;100.00
37202;BME280;37799;52.390;6.136;2023-03-03T09:10:26;102690.16;;;6.10;100.00
37202;BME280;37799;52.390;6.136;2023-03-03T09:12:54;102689.06;;;5.99;100.00
37202;BME280;37799;52.390;6.136;2023-03-03T09:15:26;102685.50;;;5.92;100.00
37202;BME280;37799;52.390;6.136;2023-03-03T09:17:54;102689.72;;;5.90;100.00
37202;BME280;37799;52.390;6.136;2023-03-03T09:20:42;102692.09;;;5.84;100.00
37202;BME280;37799;52.390;6.136;2023-03-03T09:23:23;102696.19;;;5.74;100.00
37202;BME280;37799;52.390;6.136;2023-03-03T09:25:50;102687.56;;;5.72;100.00
37202;BME280;37799;52.390;6.136;2023-03-03T09:28:25;102690.34;;;5.47;100.00
37202;BME280;37799;52.390;6.136;2023-03-03T09:30:52;102685.81;;;5.35;100.00
37202;BME280;37799;52.390;6.136;2023-03-03T09:33:30;102684.44;;;5.49;100.00
37202;BME280;37799;52.390;6.136;2023-03-03T09:36:27;102685.47;;;5.21;100.00
37202;BME280;37799;52.390;6.136;2023-03-03T09:38:53;102685.63;;;5.29;100.00
37202;BME280;37799;52.390;6.136;2023-03-03T10:05:51;102719.50;;;10.98;100.00
37202;BME280;37799;52.390;6.136;2023-03-03T10:08:01;102721.28;;;11.40;100.00
37202;BME280;37799;52.390;6.136;2023-03-03T10:10:35;102725.63;;;11.40;100.00
37202;BME280;37799;52.390;6.136;2023-03-03T10:13:43;102731.59;;;10.96;100.00
37202;BME280;37799;52.390;6.136;2023-03-03T10:24:33;102714.38;;;9.51;100.00
37202;BME280;37799;52.390;6.136;2023-03-03T10:30:00;102712.06;;;8.95;100.00
37202;BME280;37799;52.390;6.136;2023-03-03T10:32:44;102706.91;;;8.95;100.00
37202;BME280;37799;52.390;6.136;2023-03-03T10:38:31;102702.69;;;10.04;100.00
37202;BME280;37799;52.390;6.136;2023-03-03T10:52:10;102714.47;;;8.76;100.00
37202;BME280;37799;52.390;6.136;2023-03-03T10:57:37;102705.41;;;9.15;100.00
37202;BME280;37799;52.390;6.136;2023-03-03T11:00:15;102710.09;;;9.57;100.00
37202;BME280;37799;52.390;6.136;2023-03-03T11:06:48;102716.84;;;10.71;100.00
37202;BME280;37799;52.390;6.136;2023-03-03T11:09:00;102714.38;;;11.76;100.00
37202;BME280;37799;52.390;6.136;2023-03-03T11:11:44;102716.81;;;12.48;100.00
37202;BME280;37799;52.390;6.136;2023-03-03T11:16:43;102722.06;;;12.40;100.00
37202;BME280;37799;52.390;6.136;2023-03-03T11:25:15;102716.75;;;10.49;100.00
37202;BME280;37799;52.390;6.136;2023-03-03T11:36:26;102692.25;;;9.91;100.00
37202;BME280;37799;52.390;6.136;2023-03-03T11:39:07;102693.34;;;10.31;100.00
37202;BME280;37799;52.390;6.136;2023-03-03T11:41:40;102692.56;;;10.44;100.00
37202;BME280;37799;52.390;6.136;2023-03-03T11:44:27;102693.47;;;10.68;100.00
37202;BME280;37799;52.390;6.136;2023-03-03T11:47:04;102685.69;;;10.61;100.00
37202;BME280;37799;52.390;6.136;2023-03-03T11:55:03;102672.75;;;10.55;100.00
37202;BME280;37799;52.390;6.136;2023-03-03T11:57:50;102681.47;;;10.88;100.00
37202;BME280;37799;52.390;6.136;2023-03-03T12:16:54;102663.06;;;8.99;100.00
37202;BME280;37799;52.390;6.136;2023-03-03T12:19:33;102668.13;;;8.93;100.00
37202;BME280;37799;52.390;6.136;2023-03-03T12:30:16;102651.66;;;9.88;100.00
37202;BME280;37799;52.390;6.136;2023-03-03T12:35:30;102657.59;;;9.69;100.00
37202;BME280;37799;52.390;6.136;2023-03-03T12:44:43;102658.69;;;10.09;100.00
37202;BME280;37799;52.390;6.136;2023-03-03T12:46:57;102655.06;;;9.78;100.00
37202;BME280;37799;52.390;6.136;2023-03-03T12:52:25;102643.63;;;9.45;100.00
37202;BME280;37799;52.390;6.136;2023-03-03T13:01:16;102639.09;;;9.20;100.00
37202;BME280;37799;52.390;6.136;2023-03-03T13:08:49;102636.13;;;8.77;100.00
37202;BME280;37799;52.390;6.136;2023-03-03T13:16:49;102633.41;;;8.64;100.00
37202;BME280;37799;52.390;6.136;2023-03-03T13:19:22;102628.97;;;8.50;100.00
37202;BME280;37799;52.390;6.136;2023-03-03T13:21:54;102623.97;;;8.67;100.00
37202;BME280;37799;52.390;6.136;2023-03-03T13:24:44;102627.22;;;9.40;100.00
37202;BME280;37799;52.390;6.136;2023-03-03T13:27:18;102626.69;;;9.93;100.00
37202;BME280;37799;52.390;6.136;2023-03-03T13:29:55;102626.63;;;9.81;100.00
37202;BME280;37799;52.390;6.136;2023-03-03T13:35:07;102635.09;;;9.59;100.00
37202;BME280;37799;52.390;6.136;2023-03-03T13:37:45;102628.09;;;9.42;100.00
37202;BME280;37799;52.390;6.136;2023-03-03T13:42:47;102628.94;;;9.38;100.00
37202;BME280;37799;52.390;6.136;2023-03-03T13:45:22;102627.16;;;9.33;100.00
37202;BME280;37799;52.390;6.136;2023-03-03T13:50:44;102623.78;;;9.43;100.00
37202;BME280;37799;52.390;6.136;2023-03-03T13:58:47;102613.44;;;9.41;100.00
37202;BME280;37799;52.390;6.136;2023-03-03T14:01:24;102616.00;;;9.40;100.00
37202;BME280;37799;52.390;6.136;2023-03-03T14:04:00;102613.34;;;9.28;100.00
37202;BME280;37799;52.390;6.136;2023-03-03T14:06:29;102610.00;;;9.42;100.00
37202;BME280;37799;52.390;6.136;2023-03-03T14:11:42;102615.84;;;9.23;100.00
37202;BME280;37799;52.390;6.136;2023-03-03T14:17:08;102603.53;;;8.92;100.00
37202;BME280;37799;52.390;6.136;2023-03-03T14:19:43;102597.56;;;8.97;100.00
37202;BME280;37799;52.390;6.136;2023-03-03T14:22:32;102601.16;;;9.16;100.00
37202;BME280;37799;52.390;6.136;2023-03-03T14:25:06;102595.81;;;8.95;100.00
37202;BME280;37799;52.390;6.136;2023-03-03T14:27:35;102591.41;;;8.84;100.00
37202;BME280;37799;52.390;6.136;2023-03-03T14:35:37;102592.25;;;8.80;100.00
37202;BME280;37799;52.390;6.136;2023-03-03T14:38:11;102579.22;;;8.68;100.00
37202;BME280;37799;52.390;6.136;2023-03-03T14:40:40;102577.44;;;8.64;100.00
37202;BME280;37799;52.390;6.136;2023-03-03T14:43:23;102580.00;;;8.61;100.00
37202;BME280;37799;52.390;6.136;2023-03-03T14:45:50;102571.34;;;8.56;100.00
37202;BME280;37799;52.390;6.136;2023-03-03T14:48:18;102565.41;;;8.66;100.00
37202;BME280;37799;52.390;6.136;2023-03-03T14:50:52;102573.25;;;8.74;100.00
37202;BME280;37799;52.390;6.136;2023-03-03T14:53:38;102568.13;;;8.80;100.00
37202;BME280;37799;52.390;6.136;2023-03-03T14:56:35;102568.19;;;8.86;100.00
37202;BME280;37799;52.390;6.136;2023-03-03T14:59:21;102563.09;;;8.97;100.00
37202;BME280;37799;52.390;6.136;2023-03-03T15:01:56;102570.91;;;9.04;100.00
37202;BME280;37799;52.390;6.136;2023-03-03T15:04:24;102569.09;;;8.93;100.00
37202;BME280;37799;52.390;6.136;2023-03-03T15:06:52;102566.31;;;8.71;100.00
37202;BME280;37799;52.390;6.136;2023-03-03T15:11:55;102564.53;;;8.63;100.00
37202;BME280;37799;52.390;6.136;2023-03-03T15:14:41;102561.88;;;8.58;100.00
37202;BME280;37799;52.390;6.136;2023-03-03T15:17:52;102561.84;;;8.52;100.00
37202;BME280;37799;52.390;6.136;2023-03-03T15:20:34;102557.22;;;8.26;100.00
37202;BME280;37799;52.390;6.136;2023-03-03T15:26:07;102551.91;;;8.13;100.00
37202;BME280;37799;52.390;6.136;2023-03-03T15:31:23;102553.38;;;7.91;100.00
37202;BME280;37799;52.390;6.136;2023-03-03T15:42:32;102548.81;;;7.70;100.00
37202;BME280;37799;52.390;6.136;2023-03-03T15:45:10;102541.84;;;7.64;100.00
37202;BME280;37799;52.390;6.136;2023-03-03T15:47:55;102536.78;;;7.71;100.00
37202;BME280;37799;52.390;6.136;2023-03-03T15:50:53;102533.06;;;7.50;100.00
37202;BME280;37799;52.390;6.136;2023-03-03T15:56:24;102535.09;;;7.14;100.00
37202;BME280;37799;52.390;6.136;2023-03-03T16:04:25;102537.59;;;7.07;100.00
37202;BME280;37799;52.390;6.136;2023-03-03T16:07:06;102535.97;;;7.16;100.00
37202;BME280;37799;52.390;6.136;2023-03-03T16:15:05;102539.50;;;7.21;100.00
37202;BME280;37799;52.390;6.136;2023-03-03T16:18:07;102543.56;;;7.03;100.00
37202;BME280;37799;52.390;6.136;2023-03-03T16:23:46;102532.03;;;6.83;100.00
37202;BME280;37799;52.390;6.136;2023-03-03T16:28:44;102536.50;;;6.92;100.00
37202;BME280;37799;52.390;6.136;2023-03-03T16:31:25;102522.53;;;6.79;100.00
37202;BME280;37799;52.390;6.136;2023-03-03T16:36:53;102529.66;;;6.94;100.00
37202;BME280;37799;52.390;6.136;2023-03-03T16:39:36;102525.81;;;6.70;100.00
37202;BME280;37799;52.390;6.136;2023-03-03T16:42:27;102530.16;;;6.73;100.00
37202;BME280;37799;52.390;6.136;2023-03-03T16:55:41;102528.00;;;6.49;100.00
37202;BME280;37799;52.390;6.136;2023-03-03T16:58:24;102529.88;;;6.58;100.00
37202;BME280;37799;52.390;6.136;2023-03-03T17:01:21;102527.03;;;6.42;100.00
37202;BME280;37799;52.390;6.136;2023-03-03T17:04:06;102527.88;;;6.41;100.00
37202;BME280;37799;52.390;6.136;2023-03-03T17:06:40;102528.88;;;6.49;100.00
37202;BME280;37799;52.390;6.136;2023-03-03T17:12:17;102540.50;;;6.28;100.00
37202;BME280;37799;52.390;6.136;2023-03-03T17:16:01;102540.34;;;6.20;100.00